sensor_id;sensor_type;location;lat;lon;timestamp;pressure;altitude;pressure_sealevel;temperature
12126;BMP180;6126;57.908;16.490;2023-06-04T00:02:10;101761.31;;;13.15
12126;BMP180;6126;57.908;16.490;2023-06-04T00:04:36;101754.28;;;13.16
12126;BMP180;6126;57.908;16.490;2023-06-04T00:07:02;101761.31;;;13.15
12126;BMP180;6126;57.908;16.490;2023-06-04T00:09:28;101757.72;;;13.18
12126;BMP180;6126;57.908;16.490;2023-06-04T00:11:55;101754.25;;;13.17
12126;BMP180;6126;57.908;16.490;2023-06-04T00:14:21;101760.47;;;13.15
12126;BMP180;6126;57.908;16.490;2023-06-04T00:16:47;101758.81;;;13.12
12126;BMP180;6126;57.908;16.490;2023-06-04T00:19:13;101764.97;;;13.11
12126;BMP180;6126;57.908;16.490;2023-06-04T00:21:39;101764.09;;;13.11
12126;BMP180;6126;57.908;16.490;2023-06-04T00:24:05;101766.81;;;13.09
12126;BMP180;6126;57.908;16.490;2023-06-04T00:26:31;101757.28;;;13.07
12126;BMP180;6126;57.908;16.490;2023-06-04T00:28:57;101756.50;;;13.03
12126;BMP180;6126;57.908;16.490;2023-06-04T00:31:23;101766.13;;;13.04
12126;BMP180;6126;57.908;16.490;2023-06-04T00:33:49;101758.28;;;13.03
12126;BMP180;6126;57.908;16.490;2023-06-04T00:36:15;101757.44;;;13.02
12126;BMP180;6126;57.908;16.490;2023-06-04T00:38:41;101768.03;;;12.99
12126;BMP180;6126;57.908;16.490;2023-06-04T00:41:07;101774.19;;;12.98
12126;BMP180;6126;57.908;16.490;2023-06-04T00:43:33;101770.78;;;12.96
12126;BMP180;6126;57.908;16.490;2023-06-04T00:46:02;101771.75;;;12.94
12126;BMP180;6126;57.908;16.490;2023-06-04T00:48:30;101774.41;;;12.93
12126;BMP180;6126;57.908;16.490;2023-06-04T00:50:57;101767.47;;;12.92
12126;BMP180;6126;57.908;16.490;2023-06-04T00:53:25;101771.06;;;12.89
12126;BMP180;6126;57.908;16.490;2023-06-04T00:55:51;101772.94;;;12.86
12126;BMP180;6126;57.908;16.490;2023-06-04T00:58:17;101780.50;;;12.69
12126;BMP180;6126;57.908;16.490;2023-06-04T01:00:44;101777.81;;;12.46
12126;BMP180;6126;57.908;16.490;2023-06-04T01:03:23;101785.72;;;12.21
12126;BMP180;6126;57.908;16.490;2023-06-04T01:06:04;101783.00;;;11.98
12126;BMP180;6126;57.908;16.490;2023-06-04T01:08:35;101796.69;;;11.79
12126;BMP180;6126;57.908;16.490;2023-06-04T01:11:02;101793.72;;;11.64
12126;BMP180;6126;57.908;16.490;2023-06-04T01:13:28;101790.66;;;11.50
12126;BMP180;6126;57.908;16.490;2023-06-04T01:15:54;101794.41;;;11.41
12126;BMP180;6126;57.908;16.490;2023-06-04T01:18:27;101793.63;;;11.38
12126;BMP180;6126;57.908;16.490;2023-06-04T01:21:05;101803.94;;;11.44
12126;BMP180;6126;57.908;16.490;2023-06-04T01:23:50;101800.97;;;11.56
12126;BMP180;6126;57.908;16.490;2023-06-04T01:26:30;101796.25;;;11.67
12126;BMP180;6126;57.908;16.490;2023-06-04T01:28:58;101796.03;;;11.72
12126;BMP180;6126;57.908;16.490;2023-06-04T01:31:27;101795.09;;;11.75
12126;BMP180;6126;57.908;16.490;2023-06-04T01:33:55;101796.69;;;11.79
12126;BMP180;6126;57.908;16.490;2023-06-04T01:36:24;101801.88;;;11.82
12126;BMP180;6126;57.908;16.490;2023-06-04T01:38:51;101798.31;;;11.84
12126;BMP180;6126;57.908;16.490;2023-06-04T01:41:17;101796.53;;;11.85
12126;BMP180;6126;57.908;16.490;2023-06-04T01:43:43;101794.75;;;11.85
12126;BMP180;6126;57.908;16.490;2023-06-04T01:46:09;101803.47;;;11.86
12126;BMP180;6126;57.908;16.490;2023-06-04T01:48:35;101806.16;;;11.84
12126;BMP180;6126;57.908;16.490;2023-06-04T01:51:02;101807.97;;;11.82
12126;BMP180;6126;57.908;16.490;2023-06-04T01:53:29;101803.56;;;11.56
12126;BMP180;6126;57.908;16.490;2023-06-04T01:55:55;101804.72;;;11.17
12126;BMP180;6126;57.908;16.490;2023-06-04T01:58:22;101807.50;;;10.80
12126;BMP180;6126;57.908;16.490;2023-06-04T02:00:53;101815.25;;;10.51
12126;BMP180;6126;57.908;16.490;2023-06-04T02:03:23;101812.41;;;10.29
12126;BMP180;6126;57.908;16.490;2023-06-04T02:05:49;101824.91;;;10.15
12126;BMP180;6126;57.908;16.490;2023-06-04T02:08:16;101813.00;;;10.05
12126;BMP180;6126;57.908;16.490;2023-06-04T02:10:48;101809.72;;;9.97
12126;BMP180;6126;57.908;16.490;2023-06-04T02:13:15;101817.66;;;9.93
12126;BMP180;6126;57.908;16.490;2023-06-04T02:15:41;101822.06;;;9.89
12126;BMP180;6126;57.908;16.490;2023-06-04T02:18:19;101835.16;;;9.88
12126;BMP180;6126;57.908;16.490;2023-06-04T02:20:48;101831.56;;;9.93
12126;BMP180;6126;57.908;16.490;2023-06-04T02:23:17;101827.16;;;9.95
12126;BMP180;6126;57.908;16.490;2023-06-04T02:25:44;101835.84;;;9.97
12126;BMP180;6126;57.908;16.490;2023-06-04T02:28:14;101832.38;;;9.95
12126;BMP180;6126;57.908;16.490;2023-06-04T02:30:41;101842.22;;;9.83
12126;BMP180;6126;57.908;16.490;2023-06-04T02:33:06;101841.75;;;9.65
12126;BMP180;6126;57.908;16.490;2023-06-04T02:35:35;101843.75;;;9.54
12126;BMP180;6126;57.908;16.490;2023-06-04T02:38:01;101850.81;;;9.49
12126;BMP180;6126;57.908;16.490;2023-06-04T02:40:28;101843.00;;;9.48
12126;BMP180;6126;57.908;16.490;2023-06-04T02:42:54;101851.66;;;9.50
12126;BMP180;6126;57.908;16.490;2023-06-04T02:45:22;101847.22;;;9.53
12126;BMP180;6126;57.908;16.490;2023-06-04T02:47:48;101844.53;;;9.57
12126;BMP180;6126;57.908;16.490;2023-06-04T02:50:15;101847.13;;;9.59
12126;BMP180;6126;57.908;16.490;2023-06-04T02:52:41;101840.13;;;9.61
12126;BMP180;6126;57.908;16.490;2023-06-04T02:55:09;101852.97;;;9.70
12126;BMP180;6126;57.908;16.490;2023-06-04T02:57:39;101847.44;;;9.83
12126;BMP180;6126;57.908;16.490;2023-06-04T03:00:07;101849.91;;;9.90
12126;BMP180;6126;57.908;16.490;2023-06-04T03:02:41;101850.59;;;9.98
12126;BMP180;6126;57.908;16.490;2023-06-04T03:05:10;101852.88;;;10.12
12126;BMP180;6126;57.908;16.490;2023-06-04T03:07:37;101854.31;;;10.23
12126;BMP180;6126;57.908;16.490;2023-06-04T03:10:03;101840.25;;;10.28
12126;BMP180;6126;57.908;16.490;2023-06-04T03:12:30;101859.34;;;10.32
12126;BMP180;6126;57.908;16.490;2023-06-04T03:14:56;101862.72;;;10.37
12126;BMP180;6126;57.908;16.490;2023-06-04T03:17:22;101852.06;;;10.44
12126;BMP180;6126;57.908;16.490;2023-06-04T03:19:47;101857.88;;;10.55
12126;BMP180;6126;57.908;16.490;2023-06-04T03:22:14;101854.34;;;10.57
12126;BMP180;6126;57.908;16.490;2023-06-04T03:24:41;101860.59;;;10.52
12126;BMP180;6126;57.908;16.490;2023-06-04T03:27:09;101853.88;;;10.41
12126;BMP180;6126;57.908;16.490;2023-06-04T03:29:36;101870.66;;;10.32
12126;BMP180;6126;57.908;16.490;2023-06-04T03:32:03;101873.38;;;10.28
12126;BMP180;6126;57.908;16.490;2023-06-04T03:34:29;101880.25;;;10.32
12126;BMP180;6126;57.908;16.490;2023-06-04T03:36:58;101876.88;;;10.27
12126;BMP180;6126;57.908;16.490;2023-06-04T03:39:25;101878.66;;;10.26
12126;BMP180;6126;57.908;16.490;2023-06-04T03:41:51;101875.97;;;10.28
12126;BMP180;6126;57.908;16.490;2023-06-04T03:44:18;101875.97;;;10.29
12126;BMP180;6126;57.908;16.490;2023-06-04T03:46:45;101871.56;;;10.31
12126;BMP180;6126;57.908;16.490;2023-06-04T03:49:12;101868.03;;;10.34
12126;BMP180;6126;57.908;16.490;2023-06-04T03:51:38;101871.34;;;10.39
12126;BMP180;6126;57.908;16.490;2023-06-04T03:54:04;101871.31;;;10.42
12126;BMP180;6126;57.908;16.490;2023-06-04T03:56:31;101867.75;;;10.44
12126;BMP180;6126;57.908;16.490;2023-06-04T03:58:58;101866.69;;;10.51
12126;BMP180;6126;57.908;16.490;2023-06-04T04:01:24;101872.63;;;10.57
12126;BMP180;6126;57.908;16.490;2023-06-04T04:03:51;101861.97;;;10.65
12126;BMP180;6126;57.908;16.490;2023-06-04T04:06:18;101866.19;;;10.70
12126;BMP180;6126;57.908;16.490;2023-06-04T04:08:44;101857.28;;;10.77
12126;BMP180;6126;57.908;16.490;2023-06-04T04:11:15;101858.47;;;10.97
12126;BMP180;6126;57.908;16.490;2023-06-04T04:13:41;101855.06;;;11.25
12126;BMP180;6126;57.908;16.490;2023-06-04T04:16:07;101864.50;;;11.61
12126;BMP180;6126;57.908;16.490;2023-06-04T04:18:35;101863.88;;;12.08
12126;BMP180;6126;57.908;16.490;2023-06-04T04:21:02;101847.38;;;12.83
12126;BMP180;6126;57.908;16.490;2023-06-04T04:23:29;101856.19;;;13.74
12126;BMP180;6126;57.908;16.490;2023-06-04T04:25:55;101839.75;;;14.54
12126;BMP180;6126;57.908;16.490;2023-06-04T04:28:27;101829.06;;;15.17
12126;BMP180;6126;57.908;16.490;2023-06-04T04:30:54;101837.06;;;15.52
12126;BMP180;6126;57.908;16.490;2023-06-04T04:33:23;101838.72;;;15.73
12126;BMP180;6126;57.908;16.490;2023-06-04T04:35:51;101831.94;;;15.86
12126;BMP180;6126;57.908;16.490;2023-06-04T04:38:19;101825.78;;;16.03
12126;BMP180;6126;57.908;16.490;2023-06-04T04:40:46;101824.69;;;16.26
12126;BMP180;6126;57.908;16.490;2023-06-04T04:43:13;101819.19;;;16.30
12126;BMP180;6126;57.908;16.490;2023-06-04T04:45:39;101828.75;;;16.16
12126;BMP180;6126;57.908;16.490;2023-06-04T04:48:05;101831.53;;;15.95
12126;BMP180;6126;57.908;16.490;2023-06-04T04:50:31;101831.59;;;15.75
12126;BMP180;6126;57.908;16.490;2023-06-04T04:52:58;101832.72;;;15.51
12126;BMP180;6126;57.908;16.490;2023-06-04T04:55:24;101826.50;;;15.34
12126;BMP180;6126;57.908;16.490;2023-06-04T04:57:50;101833.34;;;15.20
12126;BMP180;6126;57.908;16.490;2023-06-04T05:00:16;101824.97;;;15.11
12126;BMP180;6126;57.908;16.490;2023-06-04T05:02:42;101827.00;;;15.04
12126;BMP180;6126;57.908;16.490;2023-06-04T05:05:09;101823.56;;;15.02
12126;BMP180;6126;57.908;16.490;2023-06-04T05:07:36;101825.50;;;14.99
12126;BMP180;6126;57.908;16.490;2023-06-04T05:10:02;101821.28;;;14.95
12126;BMP180;6126;57.908;16.490;2023-06-04T05:12:30;101822.25;;;14.92
12126;BMP180;6126;57.908;16.490;2023-06-04T05:14:59;101829.22;;;14.93
12126;BMP180;6126;57.908;16.490;2023-06-04T05:17:24;101824.84;;;14.94
12126;BMP180;6126;57.908;16.490;2023-06-04T05:19:56;101821.97;;;14.98
12126;BMP180;6126;57.908;16.490;2023-06-04T05:22:37;101827.06;;;15.03
12126;BMP180;6126;57.908;16.490;2023-06-04T05:25:04;101821.50;;;15.10
12126;BMP180;6126;57.908;16.490;2023-06-04T05:27:31;101823.84;;;15.16
12126;BMP180;6126;57.908;16.490;2023-06-04T05:29:58;101821.00;;;15.20
12126;BMP180;6126;57.908;16.490;2023-06-04T05:32:24;101823.38;;;15.26
12126;BMP180;6126;57.908;16.490;2023-06-04T05:34:54;101830.94;;;15.34
12126;BMP180;6126;57.908;16.490;2023-06-04T05:37:27;101831.38;;;15.43
12126;BMP180;6126;57.908;16.490;2023-06-04T05:39:55;101827.75;;;15.45
12126;BMP180;6126;57.908;16.490;2023-06-04T05:42:23;101823.97;;;15.51
12126;BMP180;6126;57.908;16.490;2023-06-04T05:44:49;101822.19;;;15.51
12126;BMP180;6126;57.908;16.490;2023-06-04T05:47:16;101821.25;;;15.52
12126;BMP180;6126;57.908;16.490;2023-06-04T05:49:42;101826.38;;;15.55
12126;BMP180;6126;57.908;16.490;2023-06-04T05:52:08;101820.84;;;15.61
12126;BMP180;6126;57.908;16.490;2023-06-04T05:54:34;101832.66;;;15.71
12126;BMP180;6126;57.908;16.490;2023-06-04T05:57:00;101824.63;;;15.74
12126;BMP180;6126;57.908;16.490;2023-06-04T05:59:26;101824.53;;;15.75
12126;BMP180;6126;57.908;16.490;2023-06-04T06:01:52;101820.91;;;15.78
12126;BMP180;6126;57.908;16.490;2023-06-04T06:04:18;101822.53;;;15.80
12126;BMP180;6126;57.908;16.490;2023-06-04T06:06:44;101825.13;;;15.82
12126;BMP180;6126;57.908;16.490;2023-06-04T06:09:14;101828.50;;;15.84
12126;BMP180;6126;57.908;16.490;2023-06-04T06:11:41;101825.88;;;15.84
12126;BMP180;6126;57.908;16.490;2023-06-04T06:14:07;101831.00;;;15.87
12126;BMP180;6126;57.908;16.490;2023-06-04T06:16:33;101826.59;;;15.87
12126;BMP180;6126;57.908;16.490;2023-06-04T06:19:00;101826.59;;;15.87
12126;BMP180;6126;57.908;16.490;2023-06-04T06:21:26;101830.88;;;15.90
12126;BMP180;6126;57.908;16.490;2023-06-04T06:23:54;101829.72;;;15.95
12126;BMP180;6126;57.908;16.490;2023-06-04T06:26:20;101830.06;;;16.06
12126;BMP180;6126;57.908;16.490;2023-06-04T06:28:47;101835.88;;;16.12
12126;BMP180;6126;57.908;16.490;2023-06-04T06:31:14;101835.88;;;16.12
12126;BMP180;6126;57.908;16.490;2023-06-04T06:33:40;101840.19;;;16.15
12126;BMP180;6126;57.908;16.490;2023-06-04T06:36:09;101837.34;;;16.19
12126;BMP180;6126;57.908;16.490;2023-06-04T06:38:35;101843.47;;;16.20
12126;BMP180;6126;57.908;16.490;2023-06-04T06:41:01;101852.22;;;16.20
12126;BMP180;6126;57.908;16.490;2023-06-04T06:43:27;101850.38;;;16.22
12126;BMP180;6126;57.908;16.490;2023-06-04T06:45:53;101858.13;;;16.25
12126;BMP180;6126;57.908;16.490;2023-06-04T06:48:18;101845.53;;;16.32
12126;BMP180;6126;57.908;16.490;2023-06-04T06:50:44;101854.81;;;16.38
12126;BMP180;6126;57.908;16.490;2023-06-04T06:53:10;101846.38;;;16.49
12126;BMP180;6126;57.908;16.490;2023-06-04T06:55:36;101862.00;;;16.53
12126;BMP180;6126;57.908;16.490;2023-06-04T06:58:02;101847.81;;;16.56
12126;BMP180;6126;57.908;16.490;2023-06-04T07:00:28;101859.78;;;16.63
12126;BMP180;6126;57.908;16.490;2023-06-04T07:02:54;101862.88;;;16.70
12126;BMP180;6126;57.908;16.490;2023-06-04T07:05:20;101857.13;;;16.79
12126;BMP180;6126;57.908;16.490;2023-06-04T07:07:46;101850.34;;;16.91
12126;BMP180;6126;57.908;16.490;2023-06-04T07:10:12;101850.59;;;17.03
12126;BMP180;6126;57.908;16.490;2023-06-04T07:12:39;101844.13;;;17.08
12126;BMP180;6126;57.908;16.490;2023-06-04T07:15:06;101850.25;;;17.09
12126;BMP180;6126;57.908;16.490;2023-06-04T07:17:34;101839.59;;;17.12
12126;BMP180;6126;57.908;16.490;2023-06-04T07:19:59;101837.56;;;17.17
12126;BMP180;6126;57.908;16.490;2023-06-04T07:22:26;101831.94;;;17.23
12126;BMP180;6126;57.908;16.490;2023-06-04T07:24:52;101836.72;;;17.31
12126;BMP180;6126;57.908;16.490;2023-06-04T07:27:19;101835.38;;;17.40
12126;BMP180;6126;57.908;16.490;2023-06-04T07:29:45;101839.25;;;17.50
12126;BMP180;6126;57.908;16.490;2023-06-04T07:32:12;101831.88;;;17.56
12126;BMP180;6126;57.908;16.490;2023-06-04T07:34:39;101833.31;;;17.61
12126;BMP180;6126;57.908;16.490;2023-06-04T07:37:05;101839.38;;;17.63
12126;BMP180;6126;57.908;16.490;2023-06-04T07:39:31;101837.31;;;17.68
12126;BMP180;6126;57.908;16.490;2023-06-04T07:41:57;101835.97;;;17.77
12126;BMP180;6126;57.908;16.490;2023-06-04T07:44:23;101835.09;;;17.91
12126;BMP180;6126;57.908;16.490;2023-06-04T07:46:49;101828.16;;;18.06
12126;BMP180;6126;57.908;16.490;2023-06-04T07:49:15;101830.19;;;18.16
12126;BMP180;6126;57.908;16.490;2023-06-04T07:51:41;101830.25;;;18.30
12126;BMP180;6126;57.908;16.490;2023-06-04T07:54:07;101832.34;;;18.39
12126;BMP180;6126;57.908;16.490;2023-06-04T07:56:33;101824.50;;;18.52
12126;BMP180;6126;57.908;16.490;2023-06-04T07:58:59;101826.72;;;18.74
12126;BMP180;6126;57.908;16.490;2023-06-04T08:01:25;101826.34;;;18.95
12126;BMP180;6126;57.908;16.490;2023-06-04T08:03:51;101825.22;;;19.13
12126;BMP180;6126;57.908;16.490;2023-06-04T08:06:17;101833.69;;;19.33
12126;BMP180;6126;57.908;16.490;2023-06-04T08:08:46;101827.72;;;19.43
12126;BMP180;6126;57.908;16.490;2023-06-04T08:11:15;101822.50;;;19.42
12126;BMP180;6126;57.908;16.490;2023-06-04T08:13:41;101820.88;;;19.25
12126;BMP180;6126;57.908;16.490;2023-06-04T08:16:09;101825.44;;;19.23
12126;BMP180;6126;57.908;16.490;2023-06-04T08:18:39;101815.41;;;19.28
12126;BMP180;6126;57.908;16.490;2023-06-04T08:21:09;101822.00;;;19.21
12126;BMP180;6126;57.908;16.490;2023-06-04T08:23:36;101821.44;;;19.03
12126;BMP180;6126;57.908;16.490;2023-06-04T08:26:02;101822.78;;;19.10
12126;BMP180;6126;57.908;16.490;2023-06-04T08:28:28;101827.88;;;19.26
12126;BMP180;6126;57.908;16.490;2023-06-04T08:30:54;101831.28;;;19.42
12126;BMP180;6126;57.908;16.490;2023-06-04T08:33:20;101827.63;;;19.58
12126;BMP180;6126;57.908;16.490;2023-06-04T08:35:46;101830.63;;;19.80
12126;BMP180;6126;57.908;16.490;2023-06-04T08:38:12;101828.59;;;20.11
12126;BMP180;6126;57.908;16.490;2023-06-04T08:40:38;101825.88;;;20.25
12126;BMP180;6126;57.908;16.490;2023-06-04T08:43:04;101832.22;;;20.22
12126;BMP180;6126;57.908;16.490;2023-06-04T08:45:38;101832.91;;;20.12
12126;BMP180;6126;57.908;16.490;2023-06-04T08:48:09;101835.63;;;19.98
12126;BMP180;6126;57.908;16.490;2023-06-04T08:50:39;101836.22;;;19.76
12126;BMP180;6126;57.908;16.490;2023-06-04T08:53:06;101831.69;;;19.64
12126;BMP180;6126;57.908;16.490;2023-06-04T08:55:33;101835.06;;;19.66
12126;BMP180;6126;57.908;16.490;2023-06-04T08:58:00;101840.28;;;19.67
12126;BMP180;6126;57.908;16.490;2023-06-04T09:00:26;101832.81;;;19.60
12126;BMP180;6126;57.908;16.490;2023-06-04T09:02:53;101839.34;;;19.41
12126;BMP180;6126;57.908;16.490;2023-06-04T09:05:22;101848.31;;;19.24
12126;BMP180;6126;57.908;16.490;2023-06-04T09:07:53;101854.19;;;19.15
12126;BMP180;6126;57.908;16.490;2023-06-04T09:10:24;101850.25;;;19.22
12126;BMP180;6126;57.908;16.490;2023-06-04T09:12:56;101842.38;;;19.48
12126;BMP180;6126;57.908;16.490;2023-06-04T09:15:23;101841.34;;;19.78
12126;BMP180;6126;57.908;16.490;2023-06-04T09:17:48;101844.47;;;19.85
12126;BMP180;6126;57.908;16.490;2023-06-04T09:20:24;101845.50;;;19.69
12126;BMP180;6126;57.908;16.490;2023-06-04T09:22:51;101852.22;;;19.46
12126;BMP180;6126;57.908;16.490;2023-06-04T09:25:26;101858.75;;;19.27
12126;BMP180;6126;57.908;16.490;2023-06-04T09:27:54;101857.09;;;19.11
12126;BMP180;6126;57.908;16.490;2023-06-04T09:30:23;101862.47;;;18.96
12126;BMP180;6126;57.908;16.490;2023-06-04T09:32:49;101862.47;;;18.96
12126;BMP180;6126;57.908;16.490;2023-06-04T09:35:18;101862.06;;;19.17
12126;BMP180;6126;57.908;16.490;2023-06-04T09:37:57;101861.50;;;19.40
12126;BMP180;6126;57.908;16.490;2023-06-04T09:40:23;101868.31;;;19.57
12126;BMP180;6126;57.908;16.490;2023-06-04T09:42:51;101864.25;;;19.66
12126;BMP180;6126;57.908;16.490;2023-06-04T09:45:34;101859.03;;;19.92
12126;BMP180;6126;57.908;16.490;2023-06-04T09:48:02;101851.84;;;20.20
12126;BMP180;6126;57.908;16.490;2023-06-04T09:50:31;101858.00;;;20.46
12126;BMP180;6126;57.908;16.490;2023-06-04T09:52:59;101856.63;;;20.67
12126;BMP180;6126;57.908;16.490;2023-06-04T09:55:26;101850.41;;;20.80
12126;BMP180;6126;57.908;16.490;2023-06-04T09:57:53;101850.94;;;20.85
12126;BMP180;6126;57.908;16.490;2023-06-04T10:00:22;101855.09;;;20.89
12126;BMP180;6126;57.908;16.490;2023-06-04T10:02:51;101852.09;;;20.81
12126;BMP180;6126;57.908;16.490;2023-06-04T10:05:20;101852.66;;;20.86
12126;BMP180;6126;57.908;16.490;2023-06-04T10:07:51;101850.97;;;20.98
12126;BMP180;6126;57.908;16.490;2023-06-04T10:10:23;101853.19;;;20.91
12126;BMP180;6126;57.908;16.490;2023-06-04T10:13:00;101856.91;;;20.89
12126;BMP180;6126;57.908;16.490;2023-06-04T10:15:30;101851.81;;;20.98
12126;BMP180;6126;57.908;16.490;2023-06-04T10:17:59;101855.19;;;20.88
12126;BMP180;6126;57.908;16.490;2023-06-04T10:20:28;101861.75;;;20.70
12126;BMP180;6126;57.908;16.490;2023-06-04T10:22:55;101862.28;;;20.49
12126;BMP180;6126;57.908;16.490;2023-06-04T10:25:21;101869.41;;;20.22
12126;BMP180;6126;57.908;16.490;2023-06-04T10:27:47;101881.50;;;20.00
12126;BMP180;6126;57.908;16.490;2023-06-04T10:30:13;101879.25;;;19.80
12126;BMP180;6126;57.908;16.490;2023-06-04T10:32:41;101870.78;;;19.74
12126;BMP180;6126;57.908;16.490;2023-06-04T10:35:07;101878.47;;;19.65
12126;BMP180;6126;57.908;16.490;2023-06-04T10:37:33;101877.03;;;19.73
12126;BMP180;6126;57.908;16.490;2023-06-04T10:40:00;101881.28;;;19.89
12126;BMP180;6126;57.908;16.490;2023-06-04T10:42:26;101867.19;;;20.03
12126;BMP180;6126;57.908;16.490;2023-06-04T10:45:03;101877.13;;;19.99
12126;BMP180;6126;57.908;16.490;2023-06-04T10:47:29;101874.59;;;19.84
12126;BMP180;6126;57.908;16.490;2023-06-04T10:50:10;101882.44;;;19.72
12126;BMP180;6126;57.908;16.490;2023-06-04T10:52:53;101887.16;;;19.53
12126;BMP180;6126;57.908;16.490;2023-06-04T10:55:20;101877.59;;;19.37
12126;BMP180;6126;57.908;16.490;2023-06-04T10:58:00;101883.16;;;19.32
12126;BMP180;6126;57.908;16.490;2023-06-04T11:00:36;101892.84;;;19.33
12126;BMP180;6126;57.908;16.490;2023-06-04T11:03:04;101894.34;;;19.37
12126;BMP180;6126;57.908;16.490;2023-06-04T11:08:01;101897.31;;;19.04
12126;BMP180;6126;57.908;16.490;2023-06-04T11:10:40;101906.59;;;18.82
12126;BMP180;6126;57.908;16.490;2023-06-04T11:13:06;101912.56;;;18.70
12126;BMP180;6126;57.908;16.490;2023-06-04T11:15:46;101923.94;;;18.72
12126;BMP180;6126;57.908;16.490;2023-06-04T11:18:22;101915.94;;;18.73
12126;BMP180;6126;57.908;16.490;2023-06-04T11:20:59;101922.16;;;18.72
12126;BMP180;6126;57.908;16.490;2023-06-04T11:23:25;101927.44;;;18.72
12126;BMP180;6126;57.908;16.490;2023-06-04T11:25:55;101918.56;;;18.73
12126;BMP180;6126;57.908;16.490;2023-06-04T11:28:21;101920.38;;;18.73
12126;BMP180;6126;57.908;16.490;2023-06-04T11:31:01;101927.13;;;18.63
12126;BMP180;6126;57.908;16.490;2023-06-04T11:33:29;101923.91;;;18.58
12126;BMP180;6126;57.908;16.490;2023-06-04T11:35:55;101920.59;;;18.54
12126;BMP180;6126;57.908;16.490;2023-06-04T11:38:22;101919.69;;;18.54
12126;BMP180;6126;57.908;16.490;2023-06-04T11:41:01;101919.88;;;18.51
12126;BMP180;6126;57.908;16.490;2023-06-04T11:43:28;101935.69;;;18.52
12126;BMP180;6126;57.908;16.490;2023-06-04T11:45:54;101929.78;;;18.48
12126;BMP180;6126;57.908;16.490;2023-06-04T11:48:21;101932.81;;;18.42
12126;BMP180;6126;57.908;16.490;2023-06-04T11:50:47;101940.13;;;18.37
12126;BMP180;6126;57.908;16.490;2023-06-04T11:53:13;101946.28;;;18.37
12126;BMP180;6126;57.908;16.490;2023-06-04T11:55:39;101942.69;;;18.38
12126;BMP180;6126;57.908;16.490;2023-06-04T11:58:06;101928.53;;;18.39
12126;BMP180;6126;57.908;16.490;2023-06-04T12:00:32;101941.47;;;18.44
12126;BMP180;6126;57.908;16.490;2023-06-04T12:02:57;101929.88;;;18.46
12126;BMP180;6126;57.908;16.490;2023-06-04T12:05:31;101933.97;;;18.52
12126;BMP180;6126;57.908;16.490;2023-06-04T12:08:10;101933.13;;;18.51
12126;BMP180;6126;57.908;16.490;2023-06-04T12:10:41;101940.56;;;18.45
12126;BMP180;6126;57.908;16.490;2023-06-04T12:13:09;101946.03;;;18.42
12126;BMP180;6126;57.908;16.490;2023-06-04T12:15:36;101948.69;;;18.42
12126;BMP180;6126;57.908;16.490;2023-06-04T12:18:02;101942.84;;;18.35
12126;BMP180;6126;57.908;16.490;2023-06-04T12:20:38;101955.50;;;18.30
12126;BMP180;6126;57.908;16.490;2023-06-04T12:23:05;101954.47;;;18.33
12126;BMP180;6126;57.908;16.490;2023-06-04T12:25:33;101954.22;;;18.37
12126;BMP180;6126;57.908;16.490;2023-06-04T12:27:59;101953.03;;;18.43
12126;BMP180;6126;57.908;16.490;2023-06-04T12:30:39;101957.22;;;18.47
12126;BMP180;6126;57.908;16.490;2023-06-04T12:33:05;101950.03;;;18.49
12126;BMP180;6126;57.908;16.490;2023-06-04T12:35:33;101949.78;;;18.53
12126;BMP180;6126;57.908;16.490;2023-06-04T12:37:59;101954.13;;;18.54
12126;BMP180;6126;57.908;16.490;2023-06-04T12:40:25;101960.28;;;18.54
12126;BMP180;6126;57.908;16.490;2023-06-04T12:42:51;101968.13;;;18.56
12126;BMP180;6126;57.908;16.490;2023-06-04T12:45:18;101969.94;;;18.55
12126;BMP180;6126;57.908;16.490;2023-06-04T12:47:43;101965.59;;;18.54
12126;BMP180;6126;57.908;16.490;2023-06-04T12:50:10;101966.44;;;18.55
12126;BMP180;6126;57.908;16.490;2023-06-04T12:52:36;101975.47;;;18.51
12126;BMP180;6126;57.908;16.490;2023-06-04T12:55:02;101967.09;;;18.43
12126;BMP180;6126;57.908;16.490;2023-06-04T12:57:28;101960.63;;;18.33
12126;BMP180;6126;57.908;16.490;2023-06-04T12:59:54;101968.41;;;18.36
12126;BMP180;6126;57.908;16.490;2023-06-04T13:02:21;101971.56;;;18.43
12126;BMP180;6126;57.908;16.490;2023-06-04T13:04:47;101972.16;;;18.48
12126;BMP180;6126;57.908;16.490;2023-06-04T13:07:18;101970.88;;;18.54
12126;BMP180;6126;57.908;16.490;2023-06-04T13:09:44;101973.25;;;18.59
12126;BMP180;6126;57.908;16.490;2023-06-04T13:12:10;101969.69;;;18.60
12126;BMP180;6126;57.908;16.490;2023-06-04T13:14:36;101977.53;;;18.61
12126;BMP180;6126;57.908;16.490;2023-06-04T13:17:02;101971.81;;;18.53
12126;BMP180;6126;57.908;16.490;2023-06-04T13:19:28;101973.41;;;18.41
12126;BMP180;6126;57.908;16.490;2023-06-04T13:21:53;101980.59;;;18.39
12126;BMP180;6126;57.908;16.490;2023-06-04T13:24:19;101979.56;;;18.41
12126;BMP180;6126;57.908;16.490;2023-06-04T13:26:45;101981.19;;;18.44
12126;BMP180;6126;57.908;16.490;2023-06-04T13:29:11;101980.16;;;18.46
12126;BMP180;6126;57.908;16.490;2023-06-04T13:31:38;101973.00;;;18.48
12126;BMP180;6126;57.908;16.490;2023-06-04T13:34:05;101971.38;;;18.46
12126;BMP180;6126;57.908;16.490;2023-06-04T13:36:31;101968.13;;;18.41
12126;BMP180;6126;57.908;16.490;2023-06-04T13:38:57;101968.47;;;18.35
12126;BMP180;6126;57.908;16.490;2023-06-04T13:41:23;101965.75;;;18.21
12126;BMP180;6126;57.908;16.490;2023-06-04T13:43:49;101968.81;;;18.14
12126;BMP180;6126;57.908;16.490;2023-06-04T13:46:15;101970.75;;;18.10
12126;BMP180;6126;57.908;16.490;2023-06-04T13:48:41;101972.38;;;18.13
12126;BMP180;6126;57.908;16.490;2023-06-04T13:51:07;101969.47;;;18.17
12126;BMP180;6126;57.908;16.490;2023-06-04T13:53:33;101966.78;;;18.19
12126;BMP180;6126;57.908;16.490;2023-06-04T13:55:59;101968.72;;;18.15
12126;BMP180;6126;57.908;16.490;2023-06-04T13:58:25;101974.16;;;18.12
12126;BMP180;6126;57.908;16.490;2023-06-04T14:00:52;101966.50;;;18.08
12126;BMP180;6126;57.908;16.490;2023-06-04T14:03:19;101969.81;;;18.11